sensor_id;sensor_type;location;lat;lon;timestamp;pressure;altitude;pressure_sealevel;temperature;humidity
55759;BME280;41678;52.126;20.664;2024-03-23T00:51:16;99597.63;;;8.52;100.00
55759;BME280;41678;52.126;20.664;2024-03-23T00:56:36;99593.22;;;8.54;100.00
55759;BME280;41678;52.126;20.664;2024-03-23T01:01:56;99588.00;;;8.49;100.00
55759;BME280;41678;52.126;20.664;2024-03-23T01:07:16;99576.66;;;8.48;100.00
55759;BME280;41678;52.126;20.664;2024-03-23T01:12:35;99576.75;;;8.41;100.00
55759;BME280;41678;52.126;20.664;2024-03-23T01:17:55;99569.72;;;8.43;100.00
55759;BME280;41678;52.126;20.664;2024-03-23T01:23:14;99568.84;;;8.44;100.00
55759;BME280;41678;52.126;20.664;2024-03-23T01:28:34;99569.72;;;8.44;100.00
55759;BME280;41678;52.126;20.664;2024-03-23T01:33:54;99570.59;;;8.43;100.00
55759;BME280;41678;52.126;20.664;2024-03-23T01:39:14;99563.66;;;8.39;100.00
55759;BME280;41678;52.126;20.664;2024-03-23T01:44:33;99549.69;;;8.37;100.00
55759;BME280;41678;52.126;20.664;2024-03-23T01:49:53;99558.41;;;8.41;100.00
55759;BME280;41678;52.126;20.664;2024-03-23T01:55:14;99554.88;;;8.40;100.00
55759;BME280;41678;52.126;20.664;2024-03-23T02:00:34;99548.75;;;8.41;100.00
55759;BME280;41678;52.126;20.664;2024-03-23T02:05:54;99542.66;;;8.41;100.00
55759;BME280;41678;52.126;20.664;2024-03-23T02:11:15;99546.16;;;8.40;100.00
55759;BME280;41678;52.126;20.664;2024-03-23T02:16:35;99540.81;;;8.46;100.00
55759;BME280;41678;52.126;20.664;2024-03-23T02:21:55;99533.94;;;8.39;100.00
55759;BME280;41678;52.126;20.664;2024-03-23T02:27:15;99532.16;;;8.39;100.00
55759;BME280;41678;52.126;20.664;2024-03-23T02:32:34;99528.66;;;8.40;100.00
55759;BME280;41678;52.126;20.664;2024-03-23T02:37:54;99522.56;;;8.40;100.00
55759;BME280;41678;52.126;20.664;2024-03-23T02:43:15;99518.19;;;8.39;100.00
55759;BME280;41678;52.126;20.664;2024-03-23T02:48:35;99515.59;;;8.39;100.00
55759;BME280;41678;52.126;20.664;2024-03-23T02:53:54;99497.22;;;8.39;100.00
55759;BME280;41678;52.126;20.664;2024-03-23T02:59:14;99494.56;;;8.40;100.00
55759;BME280;41678;52.126;20.664;2024-03-23T03:04:33;99498.91;;;8.43;100.00
55759;BME280;41678;52.126;20.664;2024-03-23T03:09:53;99497.16;;;8.42;100.00
55759;BME280;41678;52.126;20.664;2024-03-23T03:15:13;99486.72;;;8.39;100.00
55759;BME280;41678;52.126;20.664;2024-03-23T03:20:33;99498.06;;;8.42;100.00
55759;BME280;41678;52.126;20.664;2024-03-23T03:25:53;99474.50;;;8.38;100.00
55759;BME280;41678;52.126;20.664;2024-03-23T03:31:12;99495.38;;;8.44;100.00
55759;BME280;41678;52.126;20.664;2024-03-23T03:36:32;99484.94;;;8.41;100.00
55759;BME280;41678;52.126;20.664;2024-03-23T03:41:52;99498.06;;;8.41;100.00
55759;BME280;41678;52.126;20.664;2024-03-23T03:47:12;99485.78;;;8.41;100.00
55759;BME280;41678;52.126;20.664;2024-03-23T03:52:32;99476.19;;;8.40;100.00
55759;BME280;41678;52.126;20.664;2024-03-23T03:57:52;99477.91;;;8.41;100.00
55759;BME280;41678;52.126;20.664;2024-03-23T04:03:12;99478.81;;;8.42;100.00
55759;BME280;41678;52.126;20.664;2024-03-23T04:08:31;99470.94;;;8.40;100.00
55759;BME280;41678;52.126;20.664;2024-03-23T04:13:50;99463.13;;;8.37;100.00
55759;BME280;41678;52.126;20.664;2024-03-23T04:19:10;99463.13;;;8.39;100.00
55759;BME280;41678;52.126;20.664;2024-03-23T04:24:30;99458.75;;;8.38;100.00
55759;BME280;41678;52.126;20.664;2024-03-23T04:29:50;99456.19;;;8.34;100.00
55759;BME280;41678;52.126;20.664;2024-03-23T04:35:10;99447.44;;;8.34;100.00
55759;BME280;41678;52.126;20.664;2024-03-23T04:40:30;99438.69;;;8.35;100.00
55759;BME280;41678;52.126;20.664;2024-03-23T04:45:49;99432.59;;;8.34;100.00
55759;BME280;41678;52.126;20.664;2024-03-23T04:51:09;99439.53;;;8.37;100.00
55759;BME280;41678;52.126;20.664;2024-03-23T04:56:29;99437.84;;;8.34;100.00
55759;BME280;41678;52.126;20.664;2024-03-23T05:01:49;99432.59;;;8.34;100.00
55759;BME280;41678;52.126;20.664;2024-03-23T05:07:09;99427.34;;;8.33;100.00
55759;BME280;41678;52.126;20.664;2024-03-23T05:12:29;99429.06;;;8.35;100.00
55759;BME280;41678;52.126;20.664;2024-03-23T05:17:49;99416.88;;;8.31;100.00
55759;BME280;41678;52.126;20.664;2024-03-23T05:23:09;99415.97;;;8.34;100.00
55759;BME280;41678;52.126;20.664;2024-03-23T05:28:29;99407.22;;;8.35;100.00
55759;BME280;41678;52.126;20.664;2024-03-23T05:33:48;99404.66;;;8.30;100.00
55759;BME280;41678;52.126;20.664;2024-03-23T05:39:08;99415.03;;;8.38;100.00
55759;BME280;41678;52.126;20.664;2024-03-23T05:44:28;99406.38;;;8.34;100.00
55759;BME280;41678;52.126;20.664;2024-03-23T05:49:48;99406.31;;;8.38;100.00
55759;BME280;41678;52.126;20.664;2024-03-23T05:55:08;99397.56;;;8.37;100.00
55759;BME280;41678;52.126;20.664;2024-03-23T06:00:27;99398.44;;;8.38;100.00
55759;BME280;41678;52.126;20.664;2024-03-23T06:05:47;99395.00;;;8.34;100.00
55759;BME280;41678;52.126;20.664;2024-03-23T06:11:07;99390.56;;;8.38;100.00
55759;BME280;41678;52.126;20.664;2024-03-23T06:16:27;99383.59;;;8.36;100.00
55759;BME280;41678;52.126;20.664;2024-03-23T06:21:46;99402.72;;;8.42;100.00
55759;BME280;41678;52.126;20.664;2024-03-23T06:27:06;99394.09;;;8.36;100.00
55759;BME280;41678;52.126;20.664;2024-03-23T06:32:27;99377.41;;;8.41;100.00
55759;BME280;41678;52.126;20.664;2024-03-23T06:37:48;99381.75;;;8.40;100.00
55759;BME280;41678;52.126;20.664;2024-03-23T06:43:08;99372.16;;;8.41;100.00
55759;BME280;41678;52.126;20.664;2024-03-23T06:48:28;99366.00;;;8.43;100.00
55759;BME280;41678;52.126;20.664;2024-03-23T06:53:49;99368.50;;;8.51;100.00
55759;BME280;41678;52.126;20.664;2024-03-23T06:59:09;99361.50;;;8.52;100.00
55759;BME280;41678;52.126;20.664;2024-03-23T07:04:28;99359.75;;;8.50;100.00
55759;BME280;41678;52.126;20.664;2024-03-23T07:09:49;99349.25;;;8.52;100.00
55759;BME280;41678;52.126;20.664;2024-03-23T07:15:08;99361.44;;;8.55;100.00
55759;BME280;41678;52.126;20.664;2024-03-23T07:20:29;99344.84;;;8.53;100.00
55759;BME280;41678;52.126;20.664;2024-03-23T07:26:00;99343.03;;;8.56;100.00
55759;BME280;41678;52.126;20.664;2024-03-23T07:31:20;99341.31;;;8.55;100.00
55759;BME280;41678;52.126;20.664;2024-03-23T07:36:41;99333.47;;;8.54;100.00
55759;BME280;41678;52.126;20.664;2024-03-23T07:42:01;99311.53;;;8.58;100.00
55759;BME280;41678;52.126;20.664;2024-03-23T07:47:21;99318.47;;;8.62;100.00
55759;BME280;41678;52.126;20.664;2024-03-23T07:52:41;99320.13;;;8.66;100.00
55759;BME280;41678;52.126;20.664;2024-03-23T07:58:00;99312.16;;;8.72;100.00
55759;BME280;41678;52.126;20.664;2024-03-23T08:03:20;99309.31;;;8.83;100.00
55759;BME280;41678;52.126;20.664;2024-03-23T08:08:41;99309.91;;;8.95;100.00
55759;BME280;41678;52.126;20.664;2024-03-23T08:14:03;99293.25;;;8.97;100.00
55759;BME280;41678;52.126;20.664;2024-03-23T08:19:23;99286.88;;;9.09;100.00
55759;BME280;41678;52.126;20.664;2024-03-23T08:24:43;99272.47;;;9.29;100.00
55759;BME280;41678;52.126;20.664;2024-03-23T08:30:03;99263.44;;;9.39;100.00
55759;BME280;41678;52.126;20.664;2024-03-23T08:35:22;99252.53;;;9.56;100.00
55759;BME280;41678;52.126;20.664;2024-03-23T08:40:42;99243.34;;;9.74;100.00
55759;BME280;41678;52.126;20.664;2024-03-23T08:46:12;99233.28;;;9.92;100.00
55759;BME280;41678;52.126;20.664;2024-03-23T08:51:32;99231.84;;;10.13;100.00
55759;BME280;41678;52.126;20.664;2024-03-23T08:56:51;99220.09;;;10.27;100.00
55759;BME280;41678;52.126;20.664;2024-03-23T09:02:11;99211.19;;;10.32;100.00
55759;BME280;41678;52.126;20.664;2024-03-23T09:07:31;99181.22;;;10.37;100.00
55759;BME280;41678;52.126;20.664;2024-03-23T09:12:51;99170.47;;;10.46;100.00
55759;BME280;41678;52.126;20.664;2024-03-23T09:18:11;99172.47;;;10.68;100.00
55759;BME280;41678;52.126;20.664;2024-03-23T09:23:30;99161.75;;;10.74;100.00
55759;BME280;41678;52.126;20.664;2024-03-23T09:28:50;99155.31;;;10.84;100.00
55759;BME280;41678;52.126;20.664;2024-03-23T09:34:10;99143.88;;;10.84;100.00
55759;BME280;41678;52.126;20.664;2024-03-23T09:39:30;99130.47;;;10.91;100.00
55759;BME280;41678;52.126;20.664;2024-03-23T09:44:51;99116.19;;;11.00;100.00
55759;BME280;41678;52.126;20.664;2024-03-23T09:50:12;99099.31;;;11.06;100.00
55759;BME280;41678;52.126;20.664;2024-03-23T09:55:32;99073.38;;;11.20;100.00
55759;BME280;41678;52.126;20.664;2024-03-23T10:00:52;99052.78;;;11.32;100.00
55759;BME280;41678;52.126;20.664;2024-03-23T10:06:13;99042.50;;;11.50;100.00
55759;BME280;41678;52.126;20.664;2024-03-23T10:11:34;99019.94;;;11.66;100.00
55759;BME280;41678;52.126;20.664;2024-03-23T10:17:11;99005.91;;;11.89;100.00
55759;BME280;41678;52.126;20.664;2024-03-23T10:23:53;98987.72;;;12.07;100.00
55759;BME280;41678;52.126;20.664;2024-03-23T14:50:09;98581.09;;;13.46;100.00
55759;BME280;41678;52.126;20.664;2024-03-23T14:55:34;98627.53;;;13.52;100.00
55759;BME280;41678;52.126;20.664;2024-03-23T15:01:05;98652.81;;;13.38;100.00
55759;BME280;41678;52.126;20.664;2024-03-23T15:06:25;98659.47;;;13.28;100.00
55759;BME280;41678;52.126;20.664;2024-03-23T15:11:46;98672.84;;;13.25;100.00
55759;BME280;41678;52.126;20.664;2024-03-23T15:17:05;98684.00;;;13.12;100.00
55759;BME280;41678;52.126;20.664;2024-03-23T15:22:27;98710.00;;;13.02;100.00
55759;BME280;41678;52.126;20.664;2024-03-23T15:27:47;98674.25;;;12.76;100.00
55759;BME280;41678;52.126;20.664;2024-03-23T15:33:07;98650.06;;;12.47;100.00
55759;BME280;41678;52.126;20.664;2024-03-23T15:38:34;98657.88;;;12.29;100.00
55759;BME280;41678;52.126;20.664;2024-03-23T15:43:54;98591.78;;;12.12;100.00
55759;BME280;41678;52.126;20.664;2024-03-23T15:49:14;98573.75;;;12.02;100.00
55759;BME280;41678;52.126;20.664;2024-03-23T15:54:34;98580.34;;;11.92;100.00
55759;BME280;41678;52.126;20.664;2024-03-23T15:59:54;98543.84;;;11.62;100.00
55759;BME280;41678;52.126;20.664;2024-03-23T16:05:14;98558.28;;;11.53;100.00
55759;BME280;41678;52.126;20.664;2024-03-23T16:10:34;98571.13;;;11.61;100.00
55759;BME280;41678;52.126;20.664;2024-03-23T16:16:01;98569.44;;;11.60;100.00
55759;BME280;41678;52.126;20.664;2024-03-23T16:21:23;98581.03;;;11.56;100.00
55759;BME280;41678;52.126;20.664;2024-03-23T16:26:43;98574.50;;;11.44;100.00
55759;BME280;41678;52.126;20.664;2024-03-23T16:32:05;98558.34;;;11.31;100.00
55759;BME280;41678;52.126;20.664;2024-03-23T16:37:25;98579.81;;;11.22;100.00
55759;BME280;41678;52.126;20.664;2024-03-23T16:42:45;98580.47;;;11.27;100.00
55759;BME280;41678;52.126;20.664;2024-03-23T16:48:05;98583.59;;;11.37;100.00
55759;BME280;41678;52.126;20.664;2024-03-23T16:53:24;98573.09;;;11.14;100.00
55759;BME280;41678;52.126;20.664;2024-03-23T16:58:50;98554.09;;;11.06;100.00
55759;BME280;41678;52.126;20.664;2024-03-23T17:04:10;98564.75;;;11.03;100.00
55759;BME280;41678;52.126;20.664;2024-03-23T17:09:30;98556.38;;;10.93;100.00
55759;BME280;41678;52.126;20.664;2024-03-23T17:14:50;98542.56;;;10.88;100.00
55759;BME280;41678;52.126;20.664;2024-03-23T17:20:10;98554.63;;;10.94;100.00
55759;BME280;41678;52.126;20.664;2024-03-23T17:25:31;98582.59;;;10.96;100.00
55759;BME280;41678;52.126;20.664;2024-03-23T17:30:52;98599.63;;;10.87;100.00
55759;BME280;41678;52.126;20.664;2024-03-23T17:36:11;98593.59;;;10.84;100.00
55759;BME280;41678;52.126;20.664;2024-03-23T17:41:31;98613.97;;;10.80;100.00
55759;BME280;41678;52.126;20.664;2024-03-23T17:46:51;98609.22;;;10.66;100.00
55759;BME280;41678;52.126;20.664;2024-03-23T17:52:10;98635.44;;;10.69;100.00
55759;BME280;41678;52.126;20.664;2024-03-23T17:57:30;98660.22;;;10.63;100.00
55759;BME280;41678;52.126;20.664;2024-03-23T18:02:50;98685.94;;;10.55;100.00
55759;BME280;41678;52.126;20.664;2024-03-23T18:08:10;98700.28;;;10.48;100.00
55759;BME280;41678;52.126;20.664;2024-03-23T18:13:29;98740.13;;;10.35;100.00
55759;BME280;41678;52.126;20.664;2024-03-23T18:18:51;98766.31;;;9.88;100.00
55759;BME280;41678;52.126;20.664;2024-03-23T18:24:13;98815.72;;;9.76;100.00
55759;BME280;41678;52.126;20.664;2024-03-23T18:29:33;98848.47;;;9.36;100.00
55759;BME280;41678;52.126;20.664;2024-03-23T18:34:52;98861.19;;;8.88;100.00
55759;BME280;41678;52.126;20.664;2024-03-23T18:40:12;98874.03;;;8.66;100.00
55759;BME280;41678;52.126;20.664;2024-03-23T18:45:32;98903.47;;;8.43;100.00
55759;BME280;41678;52.126;20.664;2024-03-23T18:50:51;98925.44;;;7.99;100.00
55759;BME280;41678;52.126;20.664;2024-03-23T18:56:12;98924.91;;;7.85;100.00
55759;BME280;41678;52.126;20.664;2024-03-23T19:01:32;98936.72;;;7.63;100.00
55759;BME280;41678;52.126;20.664;2024-03-23T19:06:58;98961.66;;;7.39;100.00
55759;BME280;41678;52.126;20.664;2024-03-23T19:12:18;98985.56;;;7.20;100.00
55759;BME280;41678;52.126;20.664;2024-03-23T19:17:43;99013.06;;;6.96;100.00
55759;BME280;41678;52.126;20.664;2024-03-23T19:23:03;99017.59;;;6.85;100.00
55759;BME280;41678;52.126;20.664;2024-03-23T19:28:23;99023.25;;;6.58;100.00
55759;BME280;41678;52.126;20.664;2024-03-23T19:33:43;99059.94;;;6.54;100.00
55759;BME280;41678;52.126;20.664;2024-03-23T19:39:04;99061.94;;;6.34;100.00
55759;BME280;41678;52.126;20.664;2024-03-23T19:44:24;99097.75;;;6.31;100.00
55759;BME280;41678;52.126;20.664;2024-03-23T19:49:44;99087.50;;;6.15;100.00
55759;BME280;41678;52.126;20.664;2024-03-23T19:55:04;99096.28;;;6.08;100.00
55759;BME280;41678;52.126;20.664;2024-03-23T20:00:24;99110.28;;;5.99;100.00
55759;BME280;41678;52.126;20.664;2024-03-23T20:05:44;99117.31;;;5.92;100.00
55759;BME280;41678;52.126;20.664;2024-03-23T20:11:04;99120.13;;;5.75;100.00
55759;BME280;41678;52.126;20.664;2024-03-23T20:16:24;99130.59;;;5.74;100.00
55759;BME280;41678;52.126;20.664;2024-03-23T20:21:44;99142.81;;;5.68;100.00
55759;BME280;41678;52.126;20.664;2024-03-23T20:27:03;99148.06;;;5.67;100.00
55759;BME280;41678;52.126;20.664;2024-03-23T20:32:24;99156.91;;;5.55;100.00
55759;BME280;41678;52.126;20.664;2024-03-23T20:37:44;99149.94;;;5.54;100.00
55759;BME280;41678;52.126;20.664;2024-03-23T20:43:08;99150.78;;;5.53;100.00
55759;BME280;41678;52.126;20.664;2024-03-23T20:48:29;99166.47;;;5.55;100.00
55759;BME280;41678;52.126;20.664;2024-03-23T20:53:53;99172.59;;;5.49;100.00
55759;BME280;41678;52.126;20.664;2024-03-23T20:59:13;99172.63;;;5.47;100.00
55759;BME280;41678;52.126;20.664;2024-03-23T21:04:54;99181.31;;;5.48;100.00
55759;BME280;41678;52.126;20.664;2024-03-23T21:10:14;99170.03;;;5.46;100.00
55759;BME280;41678;52.126;20.664;2024-03-23T21:15:34;99178.72;;;5.43;100.00
55759;BME280;41678;52.126;20.664;2024-03-23T21:20:55;99195.34;;;5.36;100.00
55759;BME280;41678;52.126;20.664;2024-03-23T21:26:16;99205.81;;;5.30;100.00
55759;BME280;41678;52.126;20.664;2024-03-23T21:31:36;99218.84;;;5.34;100.00
55759;BME280;41678;52.126;20.664;2024-03-23T21:36:55;99191.91;;;5.31;100.00
55759;BME280;41678;52.126;20.664;2024-03-23T21:42:17;99175.41;;;5.25;100.00
55759;BME280;41678;52.126;20.664;2024-03-23T21:47:36;99166.69;;;5.28;100.00
55759;BME280;41678;52.126;20.664;2024-03-23T21:52:56;99180.63;;;5.27;100.00
55759;BME280;41678;52.126;20.664;2024-03-23T21:58:16;99208.44;;;5.27;100.00
55759;BME280;41678;52.126;20.664;2024-03-23T22:03:37;99191.94;;;5.24;100.00
55759;BME280;41678;52.126;20.664;2024-03-23T22:08:57;99192.84;;;5.20;100.00
55759;BME280;41678;52.126;20.664;2024-03-23T22:14:16;99205.91;;;5.20;100.00
55759;BME280;41678;52.126;20.664;2024-03-23T22:19:36;99209.34;;;5.21;100.00
55759;BME280;41678;52.126;20.664;2024-03-23T22:24:55;99224.19;;;5.17;100.00
55759;BME280;41678;52.126;20.664;2024-03-23T22:30:15;99212.91;;;5.14;100.00
55759;BME280;41678;52.126;20.664;2024-03-23T22:35:35;99202.47;;;5.14;100.00
55759;BME280;41678;52.126;20.664;2024-03-23T22:41:01;99202.47;;;5.12;100.00
55759;BME280;41678;52.126;20.664;2024-03-23T22:46:21;99189.47;;;5.06;100.00
55759;BME280;41678;52.126;20.664;2024-03-23T22:51:40;99203.41;;;5.02;100.00
55759;BME280;41678;52.126;20.664;2024-03-23T22:57:00;99202.53;;;5.00;100.00
55759;BME280;41678;52.126;20.664;2024-03-23T23:02:20;99200.81;;;4.95;100.00
55759;BME280;41678;52.126;20.664;2024-03-23T23:07:40;99203.47;;;4.92;100.00
55759;BME280;41678;52.126;20.664;2024-03-23T23:13:00;99217.41;;;4.88;100.00
55759;BME280;41678;52.126;20.664;2024-03-23T23:18:20;99221.78;;;4.81;100.00
55759;BME280;41678;52.126;20.664;2024-03-23T23:23:43;99217.41;;;4.84;100.00
55759;BME280;41678;52.126;20.664;2024-03-23T23:29:02;99217.44;;;4.77;100.00
55759;BME280;41678;52.126;20.664;2024-03-23T23:34:22;99204.41;;;4.76;100.00
55759;BME280;41678;52.126;20.664;2024-03-23T23:39:41;99207.06;;;4.73;100.00
55759;BME280;41678;52.126;20.664;2024-03-23T23:45:01;99227.91;;;4.70;100.00
55759;BME280;41678;52.126;20.664;2024-03-23T23:50:21;99216.66;;;4.63;100.00
55759;BME280;41678;52.126;20.664;2024-03-23T23:55:41;99220.97;;;4.67;100.00
